Time;durP1;ratioP1;P1;durP2;ratioP2;P2;SDS_P1;SDS_P2;PMS_P1;PMS_P2;Temp;Humidity;BMP_temperature;BMP_pressure;BME280_temperature;BME280_humidity;BME280_pressure;Samples;Min_cycle;Max_cycle;Signal;HPM_P1;HPM_P2
2023/10/08 00:02:26;;;;;;;9.40;7.90;;;12.30;1.00;;;;;;5109825;27;20511;-71
2023/10/08 00:04:54;;;;;;;7.60;6.90;;;12.30;1.00;;;;;;5107434;27;20477;-73
2023/10/08 00:07:21;;;;;;;8.37;5.70;;;12.30;1.00;;;;;;5117786;27;20962;-73
2023/10/08 00:09:52;;;;;;;6.23;4.03;;;12.30;1.00;;;;;;5108821;27;20481;-72
2023/10/08 00:12:20;;;;;;;6.23;4.10;;;12.20;1.00;;;;;;5107499;27;20484;-70
2023/10/08 00:14:53;;;;;;;5.30;3.60;;;12.20;1.00;;;;;;5113901;27;20454;-71
2023/10/08 00:17:20;;;;;;;5.33;3.37;;;12.20;1.00;;;;;;5109807;27;21040;-70
2023/10/08 00:19:52;;;;;;;4.63;3.17;;;12.20;1.00;;;;;;5112665;27;20925;-69
2023/10/08 00:22:19;;;;;;;8.53;3.60;;;12.20;1.00;;;;;;5112310;27;20473;-71
2023/10/08 00:24:49;;;;;;;4.80;3.33;;;12.30;1.00;;;;;;5112096;27;20537;-72
2023/10/08 00:27:17;;;;;;;5.43;3.40;;;12.30;1.00;;;;;;5113793;27;20461;-71
2023/10/08 00:29:45;;;;;;;8.97;3.90;;;12.30;1.00;;;;;;5114190;27;20461;-71
2023/10/08 00:32:13;;;;;;;8.60;5.40;;;12.30;1.00;;;;;;5112365;27;21243;-71
2023/10/08 00:34:42;;;;;;;6.00;3.87;;;12.30;1.00;;;;;;5110021;27;20842;-70
2023/10/08 00:37:13;;;;;;;6.57;3.77;;;12.30;1.00;;;;;;5111950;27;20468;-72
2023/10/08 00:39:41;;;;;;;5.57;2.90;;;12.30;1.00;;;;;;5104483;27;22742;-71
2023/10/08 00:42:09;;;;;;;10.57;3.60;;;12.40;1.00;;;;;;5113213;27;20509;-71
2023/10/08 00:44:41;;;;;;;5.90;3.60;;;12.40;1.00;;;;;;5117207;27;20897;-72
2023/10/08 00:47:12;;;;;;;7.03;3.07;;;12.40;1.00;;;;;;5113844;27;20577;-71
2023/10/08 00:49:54;;;;;;;6.43;3.13;;;12.40;1.00;;;;;;5113771;27;20458;-72
2023/10/08 00:52:29;;;;;;;7.60;3.10;;;12.40;1.00;;;;;;5114863;27;20469;-71
2023/10/08 00:55:09;;;;;;;4.93;3.43;;;12.40;1.00;;;;;;5117279;27;20546;-70
2023/10/08 00:57:41;;;;;;;4.17;2.90;;;12.40;1.00;;;;;;5117936;27;20468;-74
2023/10/08 01:00:16;;;;;;;6.43;3.30;;;12.40;1.00;;;;;;5119948;27;20421;-74
2023/10/08 01:02:45;;;;;;;8.17;3.17;;;12.40;1.00;;;;;;5115194;27;20490;-74
2023/10/08 01:05:15;;;;;;;5.87;2.80;;;12.40;1.00;;;;;;5117690;27;20494;-75
2023/10/08 01:07:47;;;;;;;5.20;2.60;;;12.40;1.00;;;;;;5110858;27;20439;-73
2023/10/08 01:10:19;;;;;;;3.90;2.60;;;12.30;1.00;;;;;;5116684;27;20541;-76
2023/10/08 01:13:04;;;;;;;7.67;3.93;;;12.30;1.00;;;;;;5112621;27;20470;-75
2023/10/08 01:15:35;;;;;;;9.90;3.30;;;12.30;1.00;;;;;;5115147;27;20435;-75
2023/10/08 01:18:04;;;;;;;6.87;3.13;;;12.30;1.00;;;;;;5117542;27;20465;-75
2023/10/08 01:20:38;;;;;;;6.00;2.73;;;12.20;1.00;;;;;;5113656;27;20938;-75
2023/10/08 01:23:13;;;;;;;5.27;3.50;;;12.20;1.00;;;;;;5112985;27;20472;-75
2023/10/08 01:25:42;;;;;;;5.87;3.20;;;12.30;1.00;;;;;;5115329;27;20468;-76
2023/10/08 01:28:15;;;;;;;4.33;3.00;;;12.30;1.00;;;;;;5115961;27;20553;-74
2023/10/08 01:30:46;;;;;;;5.90;3.30;;;12.30;1.00;;;;;;5113315;27;20873;-76
2023/10/08 01:33:14;;;;;;;6.07;2.63;;;12.30;1.00;;;;;;5110598;27;20521;-75
2023/10/08 01:35:42;;;;;;;4.70;3.00;;;12.30;1.00;;;;;;5114505;27;20457;-75
2023/10/08 01:38:13;;;;;;;3.47;1.90;;;12.20;1.00;;;;;;5112916;27;20538;-75
2023/10/08 01:40:41;;;;;;;5.23;2.47;;;12.20;1.00;;;;;;5112329;27;20470;-76
2023/10/08 01:43:09;;;;;;;6.80;2.90;;;12.20;1.00;;;;;;5115911;27;20474;-76
2023/10/08 01:45:40;;;;;;;4.43;2.30;;;12.10;1.00;;;;;;5114686;27;20489;-75
2023/10/08 01:48:09;;;;;;;5.40;2.90;;;12.10;1.00;;;;;;5115860;27;20471;-75
2023/10/08 01:50:37;;;;;;;4.90;2.80;;;12.00;1.00;;;;;;5112311;27;20901;-76
2023/10/08 01:53:08;;;;;;;9.00;3.30;;;12.00;1.00;;;;;;5112830;27;20482;-75
2023/10/08 01:55:48;;;;;;;4.03;2.70;;;12.00;1.00;;;;;;5114000;27;20445;-74
2023/10/08 01:58:17;;;;;;;7.20;3.00;;;12.00;1.00;;;;;;5111719;27;20492;-74
2023/10/08 02:00:45;;;;;;;8.17;2.90;;;12.00;1.00;;;;;;5112269;27;21001;-75
2023/10/08 02:03:15;;;;;;;4.20;2.90;;;12.00;1.00;;;;;;5112095;27;20513;-75
2023/10/08 02:05:43;;;;;;;5.70;2.63;;;12.00;1.00;;;;;;5112732;27;20462;-75
2023/10/08 02:08:10;;;;;;;6.00;4.27;;;12.00;1.00;;;;;;5114638;27;20463;-76
2023/10/08 02:10:40;;;;;;;4.93;3.50;;;12.00;1.00;;;;;;5111720;27;20542;-75
2023/10/08 02:13:08;;;;;;;7.07;3.23;;;12.00;1.00;;;;;;5115769;27;20461;-75
2023/10/08 02:15:38;;;;;;;5.80;5.00;;;12.00;1.00;;;;;;5113743;27;20916;-76
2023/10/08 02:18:06;;;;;;;6.00;3.40;;;12.00;1.00;;;;;;5114754;27;20465;-75
2023/10/08 02:20:33;;;;;;;6.00;3.43;;;12.00;1.00;;;;;;5110484;27;20530;-75
2023/10/08 02:23:01;;;;;;;8.90;3.20;;;12.00;1.00;;;;;;5109821;27;20461;-75
2023/10/08 02:25:28;;;;;;;5.97;3.27;;;12.00;1.00;;;;;;5115181;27;20461;-76
2023/10/08 02:27:57;;;;;;;5.90;3.80;;;12.00;1.00;;;;;;5112781;27;20459;-75
2023/10/08 02:30:24;;;;;;;10.33;4.10;;;12.00;1.00;;;;;;5107181;27;20451;-74
2023/10/08 02:32:52;;;;;;;8.23;3.80;;;12.00;1.00;;;;;;5110508;27;21047;-75
2023/10/08 02:35:19;;;;;;;6.13;4.30;;;12.00;1.00;;;;;;5112100;27;20469;-74
2023/10/08 02:37:46;;;;;;;6.80;3.73;;;12.00;1.00;;;;;;5114873;27;20498;-76
2023/10/08 02:40:25;;;;;;;11.83;4.50;;;12.00;1.00;;;;;;5115664;27;20454;-75
2023/10/08 02:42:57;;;;;;;8.10;3.93;;;11.90;1.00;;;;;;5113040;27;20476;-75
2023/10/08 02:45:26;;;;;;;5.60;3.60;;;11.90;1.00;;;;;;5114000;27;20454;-75
2023/10/08 02:47:54;;;;;;;5.30;3.87;;;12.00;1.00;;;;;;5112298;27;20478;-74
2023/10/08 02:50:22;;;;;;;5.80;3.47;;;12.00;1.00;;;;;;5114164;27;20438;-75
2023/10/08 02:52:49;;;;;;;9.97;4.00;;;12.00;1.00;;;;;;5111175;27;20480;-75
2023/10/08 02:55:28;;;;;;;6.27;4.13;;;12.00;1.00;;;;;;5114305;27;20470;-74
2023/10/08 02:57:56;;;;;;;11.03;4.23;;;11.90;1.00;;;;;;5112347;27;20473;-75
2023/10/08 03:00:29;;;;;;;6.33;4.07;;;12.00;1.00;;;;;;5112762;27;20567;-75
2023/10/08 03:02:57;;;;;;;8.17;4.20;;;12.00;1.00;;;;;;5113407;27;20446;-75
2023/10/08 03:05:29;;;;;;;7.40;4.67;;;12.00;1.00;;;;;;5112600;27;20519;-74
2023/10/08 03:07:57;;;;;;;7.57;4.17;;;12.00;1.00;;;;;;5113990;27;20448;-75
2023/10/08 03:10:32;;;;;;;10.27;4.37;;;12.00;1.00;;;;;;5110174;27;20524;-75
2023/10/08 03:13:04;;;;;;;10.07;4.33;;;12.00;1.00;;;;;;5109231;27;20480;-74
2023/10/08 03:15:39;;;;;;;7.57;3.50;;;12.00;1.00;;;;;;5109879;27;20537;-74
2023/10/08 03:18:09;;;;;;;6.97;3.77;;;12.00;1.00;;;;;;5108952;27;20523;-73
2023/10/08 03:20:42;;;;;;;6.70;3.70;;;12.10;1.00;;;;;;5112209;27;20449;-74
2023/10/08 03:23:22;;;;;;;3.90;3.50;;;12.10;1.00;;;;;;5108276;27;20506;-73
2023/10/08 03:25:56;;;;;;;8.67;3.90;;;12.10;1.00;;;;;;5111753;27;20454;-73
2023/10/08 03:28:24;;;;;;;7.70;3.73;;;12.10;1.00;;;;;;5112721;27;20463;-74
2023/10/08 03:31:02;;;;;;;8.13;4.10;;;12.20;1.00;;;;;;5111509;27;20493;-73
2023/10/08 03:33:34;;;;;;;8.20;4.50;;;12.20;1.00;;;;;;5110714;27;20974;-73
2023/10/08 03:36:08;;;;;;;6.30;3.70;;;12.20;1.00;;;;;;5109135;27;20458;-73
2023/10/08 03:38:50;;;;;;;5.70;3.80;;;12.10;1.00;;;;;;5107293;27;20540;-73
2023/10/08 03:41:20;;;;;;;10.33;4.00;;;12.10;1.00;;;;;;5107612;27;20480;-73
2023/10/08 03:43:56;;;;;;;6.13;3.87;;;12.10;1.00;;;;;;5106538;27;20470;-73
2023/10/08 03:46:26;;;;;;;8.07;4.00;;;12.10;1.00;;;;;;5110635;27;20426;-73
2023/10/08 03:48:56;;;;;;;7.17;4.97;;;12.10;1.00;;;;;;5107425;27;20506;-73
2023/10/08 03:51:26;;;;;;;4.67;3.83;;;12.10;1.00;;;;;;5107865;27;20465;-72
2023/10/08 03:53:58;;;;;;;6.33;3.70;;;12.10;1.00;;;;;;5113075;27;21175;-72
2023/10/08 03:56:29;;;;;;;8.17;4.37;;;12.10;1.00;;;;;;5111507;27;21562;-72
2023/10/08 03:59:00;;;;;;;6.83;3.73;;;12.00;1.00;;;;;;5110655;27;20515;-73
2023/10/08 04:01:32;;;;;;;6.37;3.77;;;12.00;1.00;;;;;;5114511;27;20458;-72
2023/10/08 04:04:00;;;;;;;7.13;4.30;;;12.00;1.00;;;;;;5109484;27;20466;-72
2023/10/08 04:06:37;;;;;;;6.37;4.13;;;12.10;1.00;;;;;;5112041;27;20619;-74
2023/10/08 04:09:23;;;;;;;10.13;6.10;;;12.00;1.00;;;;;;5109599;27;20593;-72
2023/10/08 04:11:55;;;;;;;6.87;3.47;;;12.00;1.00;;;;;;5112789;27;20605;-72
2023/10/08 04:14:24;;;;;;;8.57;3.67;;;12.00;1.00;;;;;;5115133;27;20470;-72
2023/10/08 04:16:53;;;;;;;6.27;4.23;;;11.90;1.00;;;;;;5116845;27;20553;-73
2023/10/08 04:19:21;;;;;;;6.10;3.50;;;11.90;1.00;;;;;;5115409;27;20574;-73
2023/10/08 04:21:53;;;;;;;10.23;3.40;;;11.80;1.00;;;;;;5112113;27;20446;-73
2023/10/08 04:24:28;;;;;;;5.47;4.53;;;11.80;1.00;;;;;;5116399;27;20508;-73
2023/10/08 04:26:57;;;;;;;9.30;3.70;;;11.80;1.00;;;;;;5113165;27;20455;-71
2023/10/08 04:29:24;;;;;;;8.47;4.10;;;11.80;1.00;;;;;;5111116;27;20468;-72
2023/10/08 04:32:01;;;;;;;6.17;3.77;;;11.80;1.00;;;;;;5111118;27;20547;-71
2023/10/08 04:34:29;;;;;;;6.20;3.80;;;11.70;1.00;;;;;;5113194;27;20466;-72
2023/10/08 04:37:00;;;;;;;12.13;4.23;;;11.70;1.00;;;;;;5112361;27;20533;-72
2023/10/08 04:39:32;;;;;;;11.17;3.40;;;11.70;1.00;;;;;;5111216;27;20982;-71
2023/10/08 04:42:06;;;;;;;8.40;4.20;;;11.70;1.00;;;;;;5111548;27;20450;-71
2023/10/08 04:44:33;;;;;;;9.90;4.00;;;11.70;1.00;;;;;;5112314;27;20897;-72
2023/10/08 04:47:06;;;;;;;7.33;4.27;;;11.70;1.00;;;;;;5112170;27;21063;-72
2023/10/08 04:49:34;;;;;;;4.70;3.80;;;11.60;1.00;;;;;;5113652;27;20458;-71
2023/10/08 04:52:08;;;;;;;8.20;4.00;;;11.50;1.00;;;;;;5110704;27;20457;-71
2023/10/08 04:54:40;;;;;;;4.90;3.50;;;11.50;1.00;;;;;;5108260;27;20491;-73
2023/10/08 04:57:14;;;;;;;6.73;3.63;;;11.60;1.00;;;;;;5109358;27;20463;-72
2023/10/08 04:59:43;;;;;;;10.50;5.77;;;11.50;1.00;;;;;;5112960;27;20465;-71
2023/10/08 05:02:19;;;;;;;6.03;3.70;;;11.40;1.00;;;;;;5109484;27;20496;-70
2023/10/08 05:04:56;;;;;;;6.60;4.13;;;11.40;1.00;;;;;;5109394;27;20474;-70
2023/10/08 05:10:31;;;;;;;9.20;4.67;;;11.30;1.00;;;;;;5062145;27;21808;-69
2023/10/08 05:13:14;;;;;;;8.03;4.10;;;11.30;1.00;;;;;;5107746;27;21015;-72
2023/10/08 05:15:49;;;;;;;9.40;4.57;;;11.30;1.00;;;;;;5111631;27;20908;-71
2023/10/08 05:18:23;;;;;;;8.63;4.73;;;11.30;1.00;;;;;;5110473;27;20512;-73
2023/10/08 05:21:16;;;;;;;6.70;4.33;;;11.30;1.00;;;;;;5112299;27;20531;-69
2023/10/08 05:24:08;;;;;;;9.33;5.53;;;11.30;1.00;;;;;;5106934;27;20937;-72
2023/10/08 05:26:45;;;;;;;8.07;4.90;;;11.30;1.00;;;;;;5113071;27;20977;-73
2023/10/08 05:29:51;;;;;;;10.20;5.27;;;11.40;1.00;;;;;;5111218;27;20495;-71
2023/10/08 05:32:38;;;;;;;7.30;4.20;;;11.50;1.00;;;;;;5104517;27;20461;-71
2023/10/08 05:38:13;;;;;;;7.37;4.53;;;11.60;1.00;;;;;;5091125;27;20499;-72
2023/10/08 05:41:04;;;;;;;7.30;4.63;;;11.50;1.00;;;;;;5106939;27;21013;-73
2023/10/08 05:43:55;;;;;;;8.47;4.17;;;11.50;1.00;;;;;;5111527;27;20568;-73
2023/10/08 05:46:49;;;;;;;10.47;4.67;;;11.50;1.00;;;;;;5111193;27;20888;-72
2023/10/08 05:55:10;;;;;;;14.83;6.30;;;11.50;1.00;;;;;;5112097;27;20471;-73
2023/10/08 05:57:38;;;;;;;7.93;5.20;;;11.40;1.00;;;;;;5113341;27;20464;-73
2023/10/08 06:03:07;;;;;;;9.90;4.60;;;11.30;1.00;;;;;;5078433;27;20796;-72
2023/10/08 06:05:43;;;;;;;9.03;4.80;;;11.30;1.00;;;;;;5110468;27;20469;-73
2023/10/08 06:08:14;;;;;;;11.40;4.80;;;11.40;1.00;;;;;;5114285;27;20461;-73
2023/10/08 06:10:56;;;;;;;6.53;4.43;;;11.30;1.00;;;;;;5107571;27;20583;-72
2023/10/08 06:13:29;;;;;;;6.40;3.90;;;11.40;1.00;;;;;;5113216;27;20453;-74
2023/10/08 06:16:05;;;;;;;5.43;4.10;;;11.40;1.00;;;;;;5111042;27;20478;-74
2023/10/08 06:18:33;;;;;;;7.83;4.10;;;11.30;1.00;;;;;;5114090;27;20449;-74
2023/10/08 06:21:07;;;;;;;7.93;4.00;;;11.40;1.00;;;;;;5114233;27;20535;-74
2023/10/08 06:23:39;;;;;;;11.90;4.40;;;11.40;1.00;;;;;;5114276;27;20538;-72
2023/10/08 06:26:14;;;;;;;8.40;3.80;;;11.40;1.00;;;;;;5110350;27;20462;-73
2023/10/08 06:28:45;;;;;;;8.20;3.47;;;11.60;1.00;;;;;;5108808;27;20485;-72
2023/10/08 06:31:16;;;;;;;8.53;3.93;;;11.70;1.00;;;;;;5112890;27;20541;-73
2023/10/08 06:33:44;;;;;;;8.90;4.23;;;11.90;1.00;;;;;;5112403;27;20496;-74
2023/10/08 06:36:15;;;;;;;7.50;3.67;;;12.00;1.00;;;;;;5105727;27;20471;-73
2023/10/08 06:38:48;;;;;;;5.53;4.23;;;12.10;1.00;;;;;;5115108;27;20565;-73
2023/10/08 06:41:17;;;;;;;6.93;3.67;;;12.10;1.00;;;;;;5113773;27;20488;-72
2023/10/08 06:43:47;;;;;;;7.87;3.53;;;12.20;1.00;;;;;;5110209;27;20849;-72
2023/10/08 06:46:15;;;;;;;7.00;3.83;;;12.20;1.00;;;;;;5111454;27;20512;-73
2023/10/08 06:48:43;;;;;;;7.23;3.53;;;12.30;1.00;;;;;;5110570;27;20463;-73
2023/10/08 06:51:12;;;;;;;8.23;4.00;;;12.30;1.00;;;;;;5112703;27;20495;-72
2023/10/08 06:53:40;;;;;;;4.50;3.77;;;12.30;1.00;;;;;;5110525;27;20984;-73
2023/10/08 06:56:11;;;;;;;4.80;3.63;;;12.30;1.00;;;;;;5110806;27;20461;-73
2023/10/08 06:58:39;;;;;;;5.10;3.60;;;12.30;1.00;;;;;;5110059;27;20462;-73
2023/10/08 07:01:08;;;;;;;6.87;5.90;;;12.40;1.00;;;;;;5109201;27;20463;-72
2023/10/08 07:03:37;;;;;;;5.90;3.40;;;12.50;1.00;;;;;;5110268;27;21588;-72
2023/10/08 07:06:16;;;;;;;4.60;3.17;;;12.50;1.00;;;;;;5110840;27;20527;-72
2023/10/08 07:08:46;;;;;;;10.70;4.00;;;12.40;1.00;;;;;;5112484;27;20881;-72
2023/10/08 07:11:17;;;;;;;5.77;3.30;;;12.40;1.00;;;;;;5109339;27;20567;-73
2023/10/08 07:13:44;;;;;;;4.33;3.10;;;12.40;1.00;;;;;;5111671;27;20461;-73
2023/10/08 07:16:12;;;;;;;5.40;3.43;;;12.40;1.00;;;;;;5105100;27;20549;-73
2023/10/08 07:18:39;;;;;;;5.73;3.43;;;12.30;1.00;;;;;;5112179;27;20466;-74
2023/10/08 07:21:12;;;;;;;3.90;3.50;;;12.40;1.00;;;;;;5110093;27;20493;-73
2023/10/08 07:23:55;;;;;;;4.50;2.90;;;12.40;1.00;;;;;;5109549;27;20446;-73
2023/10/08 07:26:25;;;;;;;4.33;3.10;;;12.40;1.00;;;;;;5107720;27;20466;-73
2023/10/08 07:28:52;;;;;;;3.47;3.00;;;12.50;1.00;;;;;;5111555;27;21054;-73
2023/10/08 07:31:21;;;;;;;3.57;2.70;;;12.50;1.00;;;;;;5113795;27;20549;-73
2023/10/08 07:33:56;;;;;;;3.90;3.27;;;12.50;1.00;;;;;;5113042;27;20458;-73
2023/10/08 07:36:23;;;;;;;3.93;3.10;;;12.50;1.00;;;;;;5114767;27;21055;-72
2023/10/08 07:38:52;;;;;;;4.90;2.73;;;12.60;1.00;;;;;;5114548;27;20543;-73
2023/10/08 07:41:20;;;;;;;4.67;2.33;;;12.70;1.00;;;;;;5111939;27;20486;-74
2023/10/08 07:43:55;;;;;;;3.90;2.70;;;12.70;1.00;;;;;;5114809;27;20465;-73
2023/10/08 07:46:22;;;;;;;3.87;2.50;;;12.80;1.00;;;;;;5114512;27;20538;-73
2023/10/08 07:48:50;;;;;;;4.27;2.47;;;12.90;1.00;;;;;;5113823;27;21032;-73
2023/10/08 07:51:21;;;;;;;6.03;2.60;;;13.00;1.00;;;;;;5111131;27;20619;-75
2023/10/08 07:53:48;;;;;;;4.50;2.37;;;13.00;1.00;;;;;;5114566;27;20525;-73
2023/10/08 07:56:17;;;;;;;3.07;1.90;;;13.00;1.00;;;;;;5112744;27;20466;-71
2023/10/08 07:58:44;;;;;;;5.13;2.13;;;13.10;1.00;;;;;;5114422;27;20471;-72
2023/10/08 08:01:13;;;;;;;4.70;2.70;;;13.10;1.00;;;;;;5109610;27;20992;-73
2023/10/08 08:03:41;;;;;;;2.60;1.97;;;13.20;1.00;;;;;;5113013;27;20973;-72
2023/10/08 08:06:09;;;;;;;3.20;1.93;;;13.20;1.00;;;;;;5115562;27;20545;-72
2023/10/08 08:08:37;;;;;;;2.30;1.77;;;13.30;1.00;;;;;;5114851;27;20550;-71
2023/10/08 08:11:11;;;;;;;7.30;2.60;;;13.30;1.00;;;;;;5110527;27;20479;-71
2023/10/08 08:13:42;;;;;;;2.87;2.40;;;13.40;1.00;;;;;;5115999;27;20447;-72
2023/10/08 08:16:18;;;;;;;4.40;3.70;;;13.50;1.00;;;;;;5111910;27;20544;-72
2023/10/08 08:18:48;;;;;;;4.80;1.90;;;13.60;1.00;;;;;;5116210;27;20531;-72
2023/10/08 08:21:16;;;;;;;5.27;2.03;;;13.60;1.00;;;;;;5116172;27;21043;-72
2023/10/08 08:23:47;;;;;;;2.97;2.10;;;13.70;1.00;;;;;;5113064;27;20955;-73
2023/10/08 08:26:26;;;;;;;4.13;1.80;;;13.80;1.00;;;;;;5112575;27;20597;-71
2023/10/08 08:28:56;;;;;;;4.20;2.20;;;14.00;1.00;;;;;;5108108;27;20481;-74
2023/10/08 08:31:25;;;;;;;2.07;1.60;;;14.20;1.00;;;;;;5111853;27;20525;-72
2023/10/08 08:33:56;;;;;;;5.43;3.70;;;15.00;1.00;;;;;;5114266;27;20468;-73
2023/10/08 08:36:27;;;;;;;2.33;2.13;;;15.30;1.00;;;;;;5117521;27;20492;-72
2023/10/08 08:38:54;;;;;;;3.37;2.10;;;15.20;1.00;;;;;;5113973;27;20461;-71
2023/10/08 08:41:22;;;;;;;3.60;2.10;;;15.00;1.00;;;;;;5113321;27;20561;-72
2023/10/08 08:43:56;;;;;;;4.40;2.03;;;14.80;1.00;;;;;;5110220;27;20459;-73
2023/10/08 08:46:28;;;;;;;2.30;1.43;;;14.90;1.00;;;;;;5114978;27;20662;-72
2023/10/08 08:48:58;;;;;;;2.73;1.80;;;16.10;1.00;;;;;;5108942;27;20563;-72
2023/10/08 08:51:25;;;;;;;2.43;1.30;;;17.70;1.00;;;;;;5109789;27;20932;-73
2023/10/08 08:53:53;;;;;;;1.60;1.30;;;19.10;1.00;;;;;;5108216;27;20938;-73
2023/10/08 08:56:21;;;;;;;1.30;1.07;;;20.40;1.00;;;;;;5110284;27;20977;-73
2023/10/08 08:58:48;;;;;;;2.37;1.50;;;21.60;1.00;;;;;;5113305;27;20556;-72
2023/10/08 09:01:17;;;;;;;3.93;2.00;;;22.50;1.00;;;;;;5111291;27;21001;-73
2023/10/08 09:03:47;;;;;;;2.67;1.20;;;23.80;1.00;;;;;;5101715;27;20455;-75
2023/10/08 09:06:16;;;;;;;2.50;1.40;;;24.90;1.00;;;;;;5141520;27;20497;-74
2023/10/08 09:08:45;;;;;;;1.50;1.40;;;25.70;1.00;;;;;;5112806;27;20901;-73
2023/10/08 09:11:16;;;;;;;1.60;1.10;;;26.10;1.00;;;;;;5109668;27;20478;-73
2023/10/08 09:13:43;;;;;;;1.30;1.00;;;26.50;1.00;;;;;;5113472;27;20453;-72
2023/10/08 09:16:13;;;;;;;2.03;1.37;;;27.20;1.00;;;;;;5112628;27;20548;-74
2023/10/08 09:18:43;;;;;;;2.03;1.70;;;27.70;1.00;;;;;;5110260;27;20470;-72
2023/10/08 09:21:12;;;;;;;2.07;1.43;;;27.90;1.00;;;;;;5114472;27;20486;-72
2023/10/08 09:23:47;;;;;;;2.40;1.20;;;26.10;1.00;;;;;;5112266;27;21027;-73
2023/10/08 09:26:15;;;;;;;2.33;1.00;;;24.20;1.00;;;;;;5111657;27;20493;-74
2023/10/08 09:28:47;;;;;;;2.43;1.20;;;22.90;1.00;;;;;;5113645;27;20459;-73
2023/10/08 09:31:17;;;;;;;5.90;1.83;;;21.80;1.00;;;;;;5109279;27;20917;-73
2023/10/08 09:33:44;;;;;;;2.13;1.40;;;20.60;1.00;;;;;;5114044;27;21287;-73
2023/10/08 09:36:18;;;;;;;2.03;1.10;;;19.80;1.00;;;;;;5111178;27;20529;-74
2023/10/08 09:38:49;;;;;;;1.63;1.43;;;19.20;1.00;;;;;;5111729;27;20883;-73
2023/10/08 09:41:18;;;;;;;1.20;1.00;;;18.60;1.00;;;;;;5110963;27;21064;-73
2023/10/08 09:43:47;;;;;;;1.80;0.93;;;18.10;1.00;;;;;;5110830;27;20460;-74
2023/10/08 09:46:19;;;;;;;1.00;0.90;;;17.70;1.00;;;;;;5114821;27;20481;-73
2023/10/08 09:48:52;;;;;;;2.10;1.20;;;17.40;1.00;;;;;;5110909;27;20481;-73
2023/10/08 09:51:20;;;;;;;1.37;0.97;;;17.20;1.00;;;;;;5109335;27;20491;-74
2023/10/08 09:54:05;;;;;;;1.30;0.80;;;17.20;1.00;;;;;;5108753;27;20450;-74
2023/10/08 09:56:34;;;;;;;2.30;1.07;;;17.40;1.00;;;;;;5109268;27;20545;-72
2023/10/08 09:59:01;;;;;;;0.80;0.70;;;17.80;1.00;;;;;;5113817;27;20438;-74
2023/10/08 10:01:31;;;;;;;2.10;1.23;;;18.20;1.00;;;;;;5112590;27;20885;-73
2023/10/08 10:03:59;;;;;;;1.77;0.70;;;18.60;1.00;;;;;;5113200;27;20950;-73
2023/10/08 10:06:29;;;;;;;1.17;1.07;;;18.80;1.00;;;;;;5109425;27;20479;-75
2023/10/08 10:08:58;;;;;;;1.07;0.93;;;19.60;1.00;;;;;;5114013;27;20456;-74
2023/10/08 10:11:27;;;;;;;2.90;1.30;;;20.60;1.00;;;;;;5109257;27;20471;-73
2023/10/08 10:14:00;;;;;;;2.20;2.00;;;21.00;1.00;;;;;;5104576;27;20517;-73
2023/10/08 10:16:28;;;;;;;3.40;1.40;;;20.60;1.00;;;;;;5111439;27;20503;-73
2023/10/08 10:18:58;;;;;;;1.40;1.30;;;20.40;1.00;;;;;;5109859;27;20462;-73
2023/10/08 10:21:32;;;;;;;1.40;1.07;;;21.00;1.00;;;;;;5113340;27;20464;-73
2023/10/08 10:24:05;;;;;;;1.97;1.10;;;22.30;1.00;;;;;;5108317;27;20522;-74
2023/10/08 10:26:35;;;;;;;1.57;0.93;;;23.30;1.00;;;;;;5112384;27;20457;-74
2023/10/08 10:29:26;;;;;;;3.10;1.03;;;24.20;1.00;;;;;;5110958;27;20451;-73
2023/10/08 10:31:54;;;;;;;1.33;1.10;;;23.60;1.00;;;;;;5109030;27;20465;-74
2023/10/08 10:34:24;;;;;;;1.60;1.50;;;22.60;1.00;;;;;;5108151;27;20889;-73
2023/10/08 10:36:58;;;;;;;2.80;1.60;;;21.30;1.00;;;;;;5109233;27;20563;-72
2023/10/08 10:39:27;;;;;;;0.90;0.70;;;19.50;1.00;;;;;;5109105;27;20455;-74
2023/10/08 10:41:57;;;;;;;1.83;1.00;;;18.60;1.00;;;;;;5111804;27;20470;-74
2023/10/08 10:44:25;;;;;;;2.03;1.07;;;18.30;1.00;;;;;;5110160;27;20543;-73
2023/10/08 10:47:25;;;;;;;1.97;1.10;;;18.60;1.00;;;;;;5110370;27;21013;-74
2023/10/08 10:49:48;;;;;;;1.50;0.73;;;19.30;1.00;;;;;;5107933;27;21272;-74
2023/10/08 10:52:26;;;;;;;1.33;1.23;;;20.30;1.00;;;;;;5113509;27;20527;-74
2023/10/08 10:55:00;;;;;;;1.33;1.23;;;21.00;1.00;;;;;;5108869;27;20513;-74
2023/10/08 10:57:34;;;;;;;2.03;1.70;;;22.50;1.00;;;;;;5108384;27;20489;-74
2023/10/08 11:00:46;;;;;;;3.00;1.00;;;24.10;1.00;;;;;;5111061;27;20504;-74
2023/10/08 11:02:59;;;;;;;2.40;1.30;;;24.30;1.00;;;;;;5109136;27;20474;-73
2023/10/08 11:05:29;;;;;;;1.40;1.07;;;24.10;1.00;;;;;;5110652;27;20455;-74
2023/10/08 11:08:00;;;;;;;1.63;1.00;;;24.80;1.00;;;;;;5109894;27;20550;-75
2023/10/08 11:10:30;;;;;;;1.40;1.20;;;25.50;1.00;;;;;;5112904;27;20454;-74
2023/10/08 11:13:00;;;;;;;1.77;1.13;;;25.60;1.00;;;;;;5107901;27;20464;-73
2023/10/08 11:15:37;;;;;;;1.40;1.17;;;25.80;1.00;;;;;;5110681;27;20960;-72
2023/10/08 11:18:09;;;;;;;3.80;1.33;;;27.20;1.00;;;;;;5108232;27;20461;-73
2023/10/08 11:20:39;;;;;;;1.57;1.20;;;27.90;1.00;;;;;;5110768;27;20939;-74
2023/10/08 11:23:18;;;;;;;1.77;1.03;;;27.60;1.00;;;;;;5108879;27;20570;-73
2023/10/08 11:25:59;;;;;;;1.80;0.80;;;26.90;1.00;;;;;;5109499;27;20464;-75
2023/10/08 11:28:28;;;;;;;1.67;1.40;;;27.00;1.00;;;;;;5109777;27;20556;-75
2023/10/08 11:30:59;;;;;;;0.90;0.80;;;28.50;1.00;;;;;;5111518;27;20417;-77
2023/10/08 11:33:27;;;;;;;1.00;0.80;;;30.30;1.00;;;;;;5110845;27;20995;-76
2023/10/08 11:35:59;;;;;;;1.77;1.00;;;31.70;1.00;;;;;;5110368;27;20509;-76
2023/10/08 11:38:30;;;;;;;1.63;1.30;;;31.10;1.00;;;;;;5109336;27;20468;-76
2023/10/08 11:41:13;;;;;;;2.20;1.27;;;29.80;1.00;;;;;;5109580;27;20936;-75
2023/10/08 11:43:40;;;;;;;1.80;1.23;;;28.30;1.00;;;;;;5108784;27;20467;-75
2023/10/08 11:46:07;;;;;;;2.40;1.40;;;27.00;1.00;;;;;;5110962;27;20557;-75
2023/10/08 11:48:38;;;;;;;1.97;0.90;;;26.40;1.00;;;;;;5112854;27;20467;-77
2023/10/08 11:51:05;;;;;;;1.73;0.93;;;27.00;1.00;;;;;;5107127;27;20455;-76
2023/10/08 11:53:36;;;;;;;1.73;1.10;;;28.50;1.00;;;;;;5109660;27;20468;-75
2023/10/08 11:56:12;;;;;;;1.80;1.20;;;29.60;1.00;;;;;;5106591;27;20457;-74
2023/10/08 11:58:43;;;;;;;2.20;1.30;;;29.90;1.00;;;;;;5110191;27;20449;-76
2023/10/08 12:01:15;;;;;;;2.07;1.17;;;30.70;1.00;;;;;;5108647;27;20457;-77
2023/10/08 12:03:43;;;;;;;2.70;1.30;;;31.20;1.00;;;;;;5106802;27;20492;-77
2023/10/08 12:06:15;;;;;;;2.63;1.30;;;31.50;1.00;;;;;;5108042;27;20532;-75
2023/10/08 12:08:45;;;;;;;3.33;1.10;;;31.10;1.00;;;;;;5112058;27;20468;-76
2023/10/08 12:11:14;;;;;;;1.53;1.13;;;29.90;1.00;;;;;;5108569;27;20445;-75
2023/10/08 12:13:44;;;;;;;1.93;0.90;;;28.80;1.00;;;;;;5109576;27;20481;-74
2023/10/08 12:16:18;;;;;;;2.57;1.30;;;27.50;1.00;;;;;;5111433;27;20457;-74
2023/10/08 12:18:48;;;;;;;2.13;1.30;;;25.90;1.00;;;;;;5110353;27;20455;-75
2023/10/08 12:21:17;;;;;;;1.53;1.33;;;24.90;1.00;;;;;;5113050;27;20539;-75
2023/10/08 12:23:46;;;;;;;3.97;2.17;;;24.50;1.00;;;;;;5113688;27;20468;-75
2023/10/08 12:26:18;;;;;;;2.03;1.60;;;24.00;1.00;;;;;;5114952;27;20455;-76
2023/10/08 12:28:46;;;;;;;1.30;1.10;;;23.40;1.00;;;;;;5112900;27;20484;-77
2023/10/08 12:31:15;;;;;;;2.37;1.70;;;23.40;1.00;;;;;;5112810;27;20463;-74
2023/10/08 12:33:43;;;;;;;2.53;1.73;;;23.30;1.00;;;;;;5110362;27;20469;-76
2023/10/08 12:36:13;;;;;;;2.27;1.10;;;23.10;1.00;;;;;;5114329;27;20505;-76
2023/10/08 12:38:44;;;;;;;2.03;1.40;;;22.50;1.00;;;;;;5115624;27;20544;-74
2023/10/08 12:41:16;;;;;;;4.10;1.57;;;22.20;1.00;;;;;;5113081;27;20464;-75
2023/10/08 12:43:46;;;;;;;4.23;1.40;;;22.10;1.00;;;;;;5112752;27;20566;-75
2023/10/08 12:46:25;;;;;;;2.50;1.60;;;21.70;1.00;;;;;;5113454;27;20483;-75
2023/10/08 12:48:53;;;;;;;5.13;1.07;;;21.30;1.00;;;;;;5112251;27;20839;-75
2023/10/08 12:51:23;;;;;;;4.03;1.40;;;20.90;1.00;;;;;;5111988;27;20474;-74
2023/10/08 12:53:58;;;;;;;1.97;1.07;;;20.60;1.00;;;;;;5112381;27;20471;-75
2023/10/08 12:56:31;;;;;;;2.23;1.20;;;20.50;1.00;;;;;;5109254;27;20458;-77
2023/10/08 12:59:04;;;;;;;1.53;1.00;;;20.60;1.00;;;;;;5109916;27;20843;-76
2023/10/08 13:01:31;;;;;;;2.33;1.10;;;20.60;1.00;;;;;;5113405;27;20462;-75
2023/10/08 13:04:00;;;;;;;1.53;1.13;;;21.00;1.00;;;;;;5110764;27;20469;-76
2023/10/08 13:06:29;;;;;;;10.33;2.87;;;21.10;1.00;;;;;;5111072;27;20459;-76
2023/10/08 13:08:56;;;;;;;14.97;4.33;;;20.80;1.00;;;;;;5113866;27;20459;-76
2023/10/08 13:11:25;;;;;;;2.07;1.30;;;20.30;1.00;;;;;;5114889;27;20461;-74
2023/10/08 13:13:56;;;;;;;2.17;1.20;;;20.00;1.00;;;;;;5113251;27;20469;-76
2023/10/08 13:16:25;;;;;;;5.77;2.50;;;19.90;1.00;;;;;;5109804;27;20552;-76
2023/10/08 13:18:56;;;;;;;3.70;1.57;;;19.80;1.00;;;;;;5111170;27;21028;-75
2023/10/08 13:21:24;;;;;;;1.90;1.70;;;19.70;1.00;;;;;;5107693;27;20454;-76
2023/10/08 13:23:51;;;;;;;2.60;1.10;;;19.60;1.00;;;;;;5110431;27;20473;-76
2023/10/08 13:26:22;;;;;;;1.43;1.07;;;19.50;1.00;;;;;;5113344;27;20470;-77
2023/10/08 13:28:49;;;;;;;2.90;1.30;;;19.00;1.00;;;;;;5113171;27;20471;-76
2023/10/08 13:31:18;;;;;;;2.30;1.10;;;18.70;1.00;;;;;;5110924;27;20529;-77
2023/10/08 13:33:51;;;;;;;2.37;2.17;;;18.50;1.00;;;;;;5111407;27;20479;-77